sensor_id;sensor_type;location;lat;lon;timestamp;temperature;humidity
16829;DHT22;8531;48.078;11.968;2022-12-18T00:02:17;-4.90;99.90
16829;DHT22;8531;48.078;11.968;2022-12-18T00:04:42;-5.00;99.90
16829;DHT22;8531;48.078;11.968;2022-12-18T00:07:08;-4.90;99.90
16829;DHT22;8531;48.078;11.968;2022-12-18T00:09:34;-4.90;99.90
16829;DHT22;8531;48.078;11.968;2022-12-18T00:12:00;-4.90;99.90
16829;DHT22;8531;48.078;11.968;2022-12-18T00:14:25;-4.90;99.90
16829;DHT22;8531;48.078;11.968;2022-12-18T00:16:51;-4.90;99.90
16829;DHT22;8531;48.078;11.968;2022-12-18T00:19:17;-4.90;99.90
16829;DHT22;8531;48.078;11.968;2022-12-18T00:21:43;-4.90;99.90
16829;DHT22;8531;48.078;11.968;2022-12-18T00:24:10;-4.90;99.90
16829;DHT22;8531;48.078;11.968;2022-12-18T00:26:38;-4.80;99.90
16829;DHT22;8531;48.078;11.968;2022-12-18T00:29:12;-4.70;99.90
16829;DHT22;8531;48.078;11.968;2022-12-18T00:31:39;-4.70;99.90
16829;DHT22;8531;48.078;11.968;2022-12-18T00:34:05;-4.80;99.90
16829;DHT22;8531;48.078;11.968;2022-12-18T00:36:34;-4.80;99.90
16829;DHT22;8531;48.078;11.968;2022-12-18T00:39:02;-4.80;99.90
16829;DHT22;8531;48.078;11.968;2022-12-18T00:41:28;-4.80;99.90
16829;DHT22;8531;48.078;11.968;2022-12-18T00:44:15;-4.80;99.90
16829;DHT22;8531;48.078;11.968;2022-12-18T00:46:42;-4.80;99.90
16829;DHT22;8531;48.078;11.968;2022-12-18T00:49:08;-4.70;99.90
16829;DHT22;8531;48.078;11.968;2022-12-18T00:51:34;-4.70;99.90
16829;DHT22;8531;48.078;11.968;2022-12-18T00:53:59;-4.70;99.90
16829;DHT22;8531;48.078;11.968;2022-12-18T00:56:25;-4.70;99.90
16829;DHT22;8531;48.078;11.968;2022-12-18T00:58:51;-4.70;99.90
16829;DHT22;8531;48.078;11.968;2022-12-18T01:01:17;-4.70;99.90
16829;DHT22;8531;48.078;11.968;2022-12-18T01:03:43;-4.60;99.90
16829;DHT22;8531;48.078;11.968;2022-12-18T01:06:12;-4.50;99.90
16829;DHT22;8531;48.078;11.968;2022-12-18T01:08:39;-4.60;99.90
16829;DHT22;8531;48.078;11.968;2022-12-18T01:11:12;-4.50;99.90
16829;DHT22;8531;48.078;11.968;2022-12-18T01:13:39;-4.50;99.90
16829;DHT22;8531;48.078;11.968;2022-12-18T01:16:05;-4.60;99.90
16829;DHT22;8531;48.078;11.968;2022-12-18T01:18:31;-4.70;99.90
16829;DHT22;8531;48.078;11.968;2022-12-18T01:20:57;-4.60;99.90
16829;DHT22;8531;48.078;11.968;2022-12-18T01:23:23;-4.60;99.90
16829;DHT22;8531;48.078;11.968;2022-12-18T01:25:49;-4.60;99.90
16829;DHT22;8531;48.078;11.968;2022-12-18T01:28:14;-4.50;99.90
16829;DHT22;8531;48.078;11.968;2022-12-18T01:30:40;-4.50;99.90
16829;DHT22;8531;48.078;11.968;2022-12-18T01:33:06;-4.60;99.90
16829;DHT22;8531;48.078;11.968;2022-12-18T01:35:31;-4.60;99.90
16829;DHT22;8531;48.078;11.968;2022-12-18T01:37:57;-4.50;99.90
16829;DHT22;8531;48.078;11.968;2022-12-18T01:40:23;-4.50;99.90
16829;DHT22;8531;48.078;11.968;2022-12-18T01:42:52;-4.50;99.90
16829;DHT22;8531;48.078;11.968;2022-12-18T01:47:49;-4.50;99.90
16829;DHT22;8531;48.078;11.968;2022-12-18T01:52:47;-4.60;99.90
16829;DHT22;8531;48.078;11.968;2022-12-18T01:55:16;-4.60;99.90
16829;DHT22;8531;48.078;11.968;2022-12-18T01:57:43;-4.50;99.90
16829;DHT22;8531;48.078;11.968;2022-12-18T02:00:20;-4.50;99.90
16829;DHT22;8531;48.078;11.968;2022-12-18T02:02:46;-4.70;99.90
16829;DHT22;8531;48.078;11.968;2022-12-18T02:05:16;-4.60;99.90
16829;DHT22;8531;48.078;11.968;2022-12-18T02:07:55;-4.60;99.90
16829;DHT22;8531;48.078;11.968;2022-12-18T02:13:49;-4.80;99.90
16829;DHT22;8531;48.078;11.968;2022-12-18T02:27:38;-4.60;99.90
16829;DHT22;8531;48.078;11.968;2022-12-18T02:30:06;-4.60;99.90
16829;DHT22;8531;48.078;11.968;2022-12-18T02:32:39;-4.60;99.90
16829;DHT22;8531;48.078;11.968;2022-12-18T02:35:12;-4.60;99.90
16829;DHT22;8531;48.078;11.968;2022-12-18T02:37:40;-4.50;99.90
16829;DHT22;8531;48.078;11.968;2022-12-18T02:40:08;-4.70;99.90
16829;DHT22;8531;48.078;11.968;2022-12-18T02:42:35;-4.60;99.90
16829;DHT22;8531;48.078;11.968;2022-12-18T02:45:00;-4.50;99.90
16829;DHT22;8531;48.078;11.968;2022-12-18T02:47:29;-4.60;99.90
16829;DHT22;8531;48.078;11.968;2022-12-18T02:58:27;-4.50;99.90
16829;DHT22;8531;48.078;11.968;2022-12-18T03:01:12;-4.50;99.90
16829;DHT22;8531;48.078;11.968;2022-12-18T03:03:48;-4.60;99.90
16829;DHT22;8531;48.078;11.968;2022-12-18T03:06:25;-4.60;99.90
16829;DHT22;8531;48.078;11.968;2022-12-18T03:08:58;-4.60;99.90
16829;DHT22;8531;48.078;11.968;2022-12-18T03:11:26;-4.60;99.90
16829;DHT22;8531;48.078;11.968;2022-12-18T03:14:13;-4.60;99.90
16829;DHT22;8531;48.078;11.968;2022-12-18T03:16:42;-4.70;99.90
16829;DHT22;8531;48.078;11.968;2022-12-18T03:19:15;-4.60;99.90
16829;DHT22;8531;48.078;11.968;2022-12-18T03:21:47;-4.50;99.90
16829;DHT22;8531;48.078;11.968;2022-12-18T03:24:14;-4.60;99.90
16829;DHT22;8531;48.078;11.968;2022-12-18T03:26:44;-4.70;99.90
16829;DHT22;8531;48.078;11.968;2022-12-18T03:29:23;-4.60;99.90
16829;DHT22;8531;48.078;11.968;2022-12-18T03:31:55;-4.70;99.90
16829;DHT22;8531;48.078;11.968;2022-12-18T03:34:27;-4.80;99.90
16829;DHT22;8531;48.078;11.968;2022-12-18T03:36:54;-4.70;99.90
16829;DHT22;8531;48.078;11.968;2022-12-18T03:39:20;-4.70;99.90
16829;DHT22;8531;48.078;11.968;2022-12-18T03:44:33;-4.60;99.90
16829;DHT22;8531;48.078;11.968;2022-12-18T03:52:11;-4.50;99.90
16829;DHT22;8531;48.078;11.968;2022-12-18T03:54:39;-4.50;99.90
16829;DHT22;8531;48.078;11.968;2022-12-18T03:57:17;-4.50;99.90
16829;DHT22;8531;48.078;11.968;2022-12-18T03:59:44;-4.60;99.90
16829;DHT22;8531;48.078;11.968;2022-12-18T04:02:11;-4.50;99.90
16829;DHT22;8531;48.078;11.968;2022-12-18T04:04:38;-4.60;99.90
16829;DHT22;8531;48.078;11.968;2022-12-18T04:07:05;-4.70;99.90
16829;DHT22;8531;48.078;11.968;2022-12-18T04:09:33;-4.70;99.90
16829;DHT22;8531;48.078;11.968;2022-12-18T04:11:59;-4.60;99.90
16829;DHT22;8531;48.078;11.968;2022-12-18T04:14:25;-4.60;99.90
16829;DHT22;8531;48.078;11.968;2022-12-18T04:16:51;-4.50;99.90
16829;DHT22;8531;48.078;11.968;2022-12-18T04:19:16;-4.60;99.90
16829;DHT22;8531;48.078;11.968;2022-12-18T04:21:42;-4.70;99.90
16829;DHT22;8531;48.078;11.968;2022-12-18T04:24:07;-4.60;99.90
16829;DHT22;8531;48.078;11.968;2022-12-18T04:26:34;-4.50;99.90
16829;DHT22;8531;48.078;11.968;2022-12-18T04:28:59;-4.50;99.90
16829;DHT22;8531;48.078;11.968;2022-12-18T04:31:25;-4.60;99.90
16829;DHT22;8531;48.078;11.968;2022-12-18T04:33:51;-4.50;99.90
16829;DHT22;8531;48.078;11.968;2022-12-18T04:36:17;-4.50;99.90
16829;DHT22;8531;48.078;11.968;2022-12-18T04:38:42;-4.50;99.90
16829;DHT22;8531;48.078;11.968;2022-12-18T04:41:08;-4.50;99.90
16829;DHT22;8531;48.078;11.968;2022-12-18T04:43:34;-4.50;99.90
16829;DHT22;8531;48.078;11.968;2022-12-18T04:46:04;-4.60;99.90
16829;DHT22;8531;48.078;11.968;2022-12-18T04:48:30;-4.50;99.90
16829;DHT22;8531;48.078;11.968;2022-12-18T04:50:56;-4.60;99.90
16829;DHT22;8531;48.078;11.968;2022-12-18T04:53:21;-4.60;99.90
16829;DHT22;8531;48.078;11.968;2022-12-18T04:55:47;-4.60;99.90
16829;DHT22;8531;48.078;11.968;2022-12-18T04:58:13;-4.60;99.90
16829;DHT22;8531;48.078;11.968;2022-12-18T05:00:39;-4.60;99.90
16829;DHT22;8531;48.078;11.968;2022-12-18T05:03:04;-4.50;99.90
16829;DHT22;8531;48.078;11.968;2022-12-18T05:05:30;-4.70;99.90
16829;DHT22;8531;48.078;11.968;2022-12-18T05:07:56;-4.60;99.90
16829;DHT22;8531;48.078;11.968;2022-12-18T05:10:22;-4.60;99.90
16829;DHT22;8531;48.078;11.968;2022-12-18T05:12:47;-4.60;99.90
16829;DHT22;8531;48.078;11.968;2022-12-18T05:15:32;-4.60;99.90
16829;DHT22;8531;48.078;11.968;2022-12-18T05:17:59;-4.60;99.90
16829;DHT22;8531;48.078;11.968;2022-12-18T05:20:26;-4.60;99.90
16829;DHT22;8531;48.078;11.968;2022-12-18T05:22:52;-4.60;99.90
16829;DHT22;8531;48.078;11.968;2022-12-18T05:25:18;-4.80;99.90
16829;DHT22;8531;48.078;11.968;2022-12-18T05:27:44;-4.80;99.90
16829;DHT22;8531;48.078;11.968;2022-12-18T05:30:11;-4.90;99.90
16829;DHT22;8531;48.078;11.968;2022-12-18T05:32:37;-4.90;99.90
16829;DHT22;8531;48.078;11.968;2022-12-18T05:35:04;-5.00;99.90
16829;DHT22;8531;48.078;11.968;2022-12-18T05:37:31;-5.00;99.90
16829;DHT22;8531;48.078;11.968;2022-12-18T05:39:56;-5.10;99.90
16829;DHT22;8531;48.078;11.968;2022-12-18T05:42:22;-5.10;99.90
16829;DHT22;8531;48.078;11.968;2022-12-18T05:44:48;-5.20;99.90
16829;DHT22;8531;48.078;11.968;2022-12-18T05:47:13;-5.20;99.90
16829;DHT22;8531;48.078;11.968;2022-12-18T05:49:39;-5.20;99.90
16829;DHT22;8531;48.078;11.968;2022-12-18T05:52:05;-5.20;99.90
16829;DHT22;8531;48.078;11.968;2022-12-18T05:54:30;-5.20;99.90
16829;DHT22;8531;48.078;11.968;2022-12-18T05:56:57;-5.20;99.90
16829;DHT22;8531;48.078;11.968;2022-12-18T05:59:23;-5.20;99.90
16829;DHT22;8531;48.078;11.968;2022-12-18T06:01:48;-5.20;99.90
16829;DHT22;8531;48.078;11.968;2022-12-18T06:04:14;-5.30;99.90
16829;DHT22;8531;48.078;11.968;2022-12-18T06:06:40;-5.30;99.90
16829;DHT22;8531;48.078;11.968;2022-12-18T06:09:06;-5.30;99.90
16829;DHT22;8531;48.078;11.968;2022-12-18T06:11:38;-5.30;99.90
16829;DHT22;8531;48.078;11.968;2022-12-18T06:14:05;-5.20;99.90
16829;DHT22;8531;48.078;11.968;2022-12-18T06:16:32;-5.30;99.90
16829;DHT22;8531;48.078;11.968;2022-12-18T06:19:03;-5.20;99.90
16829;DHT22;8531;48.078;11.968;2022-12-18T06:21:30;-5.20;99.90
16829;DHT22;8531;48.078;11.968;2022-12-18T06:23:56;-5.30;99.90
16829;DHT22;8531;48.078;11.968;2022-12-18T06:26:22;-5.40;99.90
16829;DHT22;8531;48.078;11.968;2022-12-18T06:28:47;-5.40;99.90
16829;DHT22;8531;48.078;11.968;2022-12-18T06:31:13;-5.30;99.90
16829;DHT22;8531;48.078;11.968;2022-12-18T06:33:39;-5.10;99.90
16829;DHT22;8531;48.078;11.968;2022-12-18T06:36:10;-5.20;99.90
16829;DHT22;8531;48.078;11.968;2022-12-18T06:38:38;-5.30;99.90
16829;DHT22;8531;48.078;11.968;2022-12-18T06:41:08;-5.30;99.90
16829;DHT22;8531;48.078;11.968;2022-12-18T06:43:34;-5.20;99.90
16829;DHT22;8531;48.078;11.968;2022-12-18T06:46:00;-5.20;99.90
16829;DHT22;8531;48.078;11.968;2022-12-18T06:48:26;-5.30;99.90
16829;DHT22;8531;48.078;11.968;2022-12-18T06:50:53;-5.30;99.90
16829;DHT22;8531;48.078;11.968;2022-12-18T06:53:19;-5.30;99.90
16829;DHT22;8531;48.078;11.968;2022-12-18T06:55:44;-5.30;99.90
16829;DHT22;8531;48.078;11.968;2022-12-18T06:58:10;-5.20;99.90
16829;DHT22;8531;48.078;11.968;2022-12-18T07:00:36;-5.20;99.90
16829;DHT22;8531;48.078;11.968;2022-12-18T07:03:01;-5.20;99.90
16829;DHT22;8531;48.078;11.968;2022-12-18T07:05:27;-5.30;99.90
16829;DHT22;8531;48.078;11.968;2022-12-18T07:07:53;-5.50;99.90
16829;DHT22;8531;48.078;11.968;2022-12-18T07:10:18;-5.50;99.90
16829;DHT22;8531;48.078;11.968;2022-12-18T07:12:44;-5.50;99.90
16829;DHT22;8531;48.078;11.968;2022-12-18T07:15:10;-5.50;99.90
16829;DHT22;8531;48.078;11.968;2022-12-18T07:17:36;-5.50;99.90
16829;DHT22;8531;48.078;11.968;2022-12-18T07:20:02;-5.60;99.90
16829;DHT22;8531;48.078;11.968;2022-12-18T07:22:27;-5.70;99.90
16829;DHT22;8531;48.078;11.968;2022-12-18T07:24:53;-5.70;99.90
16829;DHT22;8531;48.078;11.968;2022-12-18T07:27:19;-5.70;99.90
16829;DHT22;8531;48.078;11.968;2022-12-18T07:29:44;-5.70;99.90
16829;DHT22;8531;48.078;11.968;2022-12-18T07:32:10;-5.70;99.90
16829;DHT22;8531;48.078;11.968;2022-12-18T07:34:36;-5.70;99.90
16829;DHT22;8531;48.078;11.968;2022-12-18T07:37:02;-5.70;99.90
16829;DHT22;8531;48.078;11.968;2022-12-18T07:39:27;-5.70;99.90
16829;DHT22;8531;48.078;11.968;2022-12-18T07:41:53;-5.70;99.90
16829;DHT22;8531;48.078;11.968;2022-12-18T07:44:38;-5.80;99.90
16829;DHT22;8531;48.078;11.968;2022-12-18T07:47:04;-5.70;99.90
16829;DHT22;8531;48.078;11.968;2022-12-18T07:49:30;-5.70;99.90
16829;DHT22;8531;48.078;11.968;2022-12-18T07:51:56;-5.70;99.90
16829;DHT22;8531;48.078;11.968;2022-12-18T07:54:23;-5.70;99.90
16829;DHT22;8531;48.078;11.968;2022-12-18T07:56:49;-5.80;99.90
16829;DHT22;8531;48.078;11.968;2022-12-18T07:59:15;-5.80;99.90
16829;DHT22;8531;48.078;11.968;2022-12-18T08:01:41;-5.90;99.90
16829;DHT22;8531;48.078;11.968;2022-12-18T08:04:06;-6.00;99.90
16829;DHT22;8531;48.078;11.968;2022-12-18T08:06:32;-6.00;99.90
16829;DHT22;8531;48.078;11.968;2022-12-18T08:08:58;-5.90;99.90
16829;DHT22;8531;48.078;11.968;2022-12-18T08:11:26;-5.90;99.90
16829;DHT22;8531;48.078;11.968;2022-12-18T08:13:52;-6.00;99.90
16829;DHT22;8531;48.078;11.968;2022-12-18T08:16:18;-6.00;99.90
16829;DHT22;8531;48.078;11.968;2022-12-18T08:18:45;-5.90;99.90
16829;DHT22;8531;48.078;11.968;2022-12-18T08:21:13;-5.90;99.90
16829;DHT22;8531;48.078;11.968;2022-12-18T08:23:39;-6.00;99.90
16829;DHT22;8531;48.078;11.968;2022-12-18T08:26:05;-6.10;99.90
16829;DHT22;8531;48.078;11.968;2022-12-18T08:28:31;-6.10;99.90
16829;DHT22;8531;48.078;11.968;2022-12-18T08:30:56;-6.10;99.90
16829;DHT22;8531;48.078;11.968;2022-12-18T08:33:22;-6.10;99.90
16829;DHT22;8531;48.078;11.968;2022-12-18T08:35:48;-6.10;99.90
16829;DHT22;8531;48.078;11.968;2022-12-18T08:38:13;-6.10;99.90
16829;DHT22;8531;48.078;11.968;2022-12-18T08:40:39;-6.10;99.90
16829;DHT22;8531;48.078;11.968;2022-12-18T08:43:05;-6.00;99.90
16829;DHT22;8531;48.078;11.968;2022-12-18T08:45:49;-6.00;99.90
16829;DHT22;8531;48.078;11.968;2022-12-18T08:48:14;-6.00;99.90
16829;DHT22;8531;48.078;11.968;2022-12-18T08:50:40;-6.00;99.90
16829;DHT22;8531;48.078;11.968;2022-12-18T08:53:06;-6.00;99.90
16829;DHT22;8531;48.078;11.968;2022-12-18T08:55:32;-5.90;99.90
16829;DHT22;8531;48.078;11.968;2022-12-18T08:57:57;-6.00;99.90
16829;DHT22;8531;48.078;11.968;2022-12-18T09:00:23;-5.80;99.90
16829;DHT22;8531;48.078;11.968;2022-12-18T09:02:49;-5.90;99.90
16829;DHT22;8531;48.078;11.968;2022-12-18T09:05:14;-5.90;99.90
16829;DHT22;8531;48.078;11.968;2022-12-18T09:07:40;-5.90;99.90
16829;DHT22;8531;48.078;11.968;2022-12-18T09:10:06;-5.80;99.90
16829;DHT22;8531;48.078;11.968;2022-12-18T09:12:32;-5.80;99.90
16829;DHT22;8531;48.078;11.968;2022-12-18T09:14:57;-5.80;99.90
16829;DHT22;8531;48.078;11.968;2022-12-18T09:17:23;-5.80;99.90
16829;DHT22;8531;48.078;11.968;2022-12-18T09:19:49;-5.80;99.90
16829;DHT22;8531;48.078;11.968;2022-12-18T09:22:15;-5.80;99.90
16829;DHT22;8531;48.078;11.968;2022-12-18T09:24:40;-5.70;99.90
16829;DHT22;8531;48.078;11.968;2022-12-18T09:27:06;-5.70;99.90
16829;DHT22;8531;48.078;11.968;2022-12-18T09:29:32;-5.70;99.90
16829;DHT22;8531;48.078;11.968;2022-12-18T09:31:58;-5.70;99.90
16829;DHT22;8531;48.078;11.968;2022-12-18T09:34:23;-5.60;99.90
16829;DHT22;8531;48.078;11.968;2022-12-18T09:36:50;-5.50;99.90
16829;DHT22;8531;48.078;11.968;2022-12-18T09:39:16;-5.40;99.90
16829;DHT22;8531;48.078;11.968;2022-12-18T09:41:47;-5.50;99.90
16829;DHT22;8531;48.078;11.968;2022-12-18T09:44:25;-5.50;99.90
16829;DHT22;8531;48.078;11.968;2022-12-18T09:47:03;-5.50;99.90
16829;DHT22;8531;48.078;11.968;2022-12-18T09:49:32;-5.50;99.90
16829;DHT22;8531;48.078;11.968;2022-12-18T09:52:08;-5.50;99.90
16829;DHT22;8531;48.078;11.968;2022-12-18T09:54:45;-5.40;99.90
16829;DHT22;8531;48.078;11.968;2022-12-18T09:57:23;-5.40;99.90
16829;DHT22;8531;48.078;11.968;2022-12-18T10:00:04;-5.40;99.90
16829;DHT22;8531;48.078;11.968;2022-12-18T10:02:32;-5.20;99.90
16829;DHT22;8531;48.078;11.968;2022-12-18T10:05:06;-5.30;99.90
16829;DHT22;8531;48.078;11.968;2022-12-18T10:10:34;-5.30;99.90
16829;DHT22;8531;48.078;11.968;2022-12-18T10:13:23;-5.30;99.90
16829;DHT22;8531;48.078;11.968;2022-12-18T10:21:12;-5.40;99.90
16829;DHT22;8531;48.078;11.968;2022-12-18T10:26:17;-5.40;99.90
16829;DHT22;8531;48.078;11.968;2022-12-18T10:28:43;-5.40;99.90
16829;DHT22;8531;48.078;11.968;2022-12-18T10:31:21;-5.30;99.90
16829;DHT22;8531;48.078;11.968;2022-12-18T10:33:47;-5.20;99.90
16829;DHT22;8531;48.078;11.968;2022-12-18T10:36:13;-5.10;99.90
16829;DHT22;8531;48.078;11.968;2022-12-18T10:38:39;-5.10;99.90
16829;DHT22;8531;48.078;11.968;2022-12-18T10:43:44;-4.90;99.90
16829;DHT22;8531;48.078;11.968;2022-12-18T10:48:53;-4.80;99.90
16829;DHT22;8531;48.078;11.968;2022-12-18T10:51:28;-4.80;99.90
16829;DHT22;8531;48.078;11.968;2022-12-18T10:56:30;-4.50;99.90
16829;DHT22;8531;48.078;11.968;2022-12-18T10:59:03;-4.50;99.90
16829;DHT22;8531;48.078;11.968;2022-12-18T11:04:19;-4.40;99.90
16829;DHT22;8531;48.078;11.968;2022-12-18T11:07:06;-4.60;99.90
16829;DHT22;8531;48.078;11.968;2022-12-18T11:09:34;-4.60;99.90
16829;DHT22;8531;48.078;11.968;2022-12-18T11:12:03;-4.60;99.90
16829;DHT22;8531;48.078;11.968;2022-12-18T11:14:34;-4.60;99.90
16829;DHT22;8531;48.078;11.968;2022-12-18T11:19:55;-4.50;99.90
16829;DHT22;8531;48.078;11.968;2022-12-18T11:22:33;-4.50;99.90
16829;DHT22;8531;48.078;11.968;2022-12-18T11:27:51;-4.40;99.90
16829;DHT22;8531;48.078;11.968;2022-12-18T11:30:26;-4.30;99.90
16829;DHT22;8531;48.078;11.968;2022-12-18T11:33:09;-4.30;99.90
16829;DHT22;8531;48.078;11.968;2022-12-18T11:38:18;-4.40;99.90
16829;DHT22;8531;48.078;11.968;2022-12-18T11:40:50;-4.40;99.90
16829;DHT22;8531;48.078;11.968;2022-12-18T11:43:31;-4.40;99.90
16829;DHT22;8531;48.078;11.968;2022-12-18T11:48:57;-4.40;99.90
16829;DHT22;8531;48.078;11.968;2022-12-18T11:51:31;-4.40;99.90
16829;DHT22;8531;48.078;11.968;2022-12-18T11:54:00;-4.30;99.90
16829;DHT22;8531;48.078;11.968;2022-12-18T11:56:46;-4.30;99.90
16829;DHT22;8531;48.078;11.968;2022-12-18T11:59:22;-4.40;99.90
16829;DHT22;8531;48.078;11.968;2022-12-18T12:02:03;-4.40;99.90
16829;DHT22;8531;48.078;11.968;2022-12-18T12:04:43;-4.50;99.90
16829;DHT22;8531;48.078;11.968;2022-12-18T12:13:49;-4.40;99.90
16829;DHT22;8531;48.078;11.968;2022-12-18T12:16:17;-4.30;99.90
16829;DHT22;8531;48.078;11.968;2022-12-18T12:21:46;-4.30;99.90
16829;DHT22;8531;48.078;11.968;2022-12-18T12:24:27;-4.30;99.90
16829;DHT22;8531;48.078;11.968;2022-12-18T12:40:20;-4.30;99.90
16829;DHT22;8531;48.078;11.968;2022-12-18T12:42:58;-4.30;99.90
16829;DHT22;8531;48.078;11.968;2022-12-18T12:45:54;-4.30;99.90
16829;DHT22;8531;48.078;11.968;2022-12-18T12:51:34;-4.20;99.90
16829;DHT22;8531;48.078;11.968;2022-12-18T12:54:02;-4.10;99.90
16829;DHT22;8531;48.078;11.968;2022-12-18T12:56:50;-4.20;99.90
16829;DHT22;8531;48.078;11.968;2022-12-18T13:02:18;-4.50;99.90
16829;DHT22;8531;48.078;11.968;2022-12-18T13:04:49;-4.50;99.90
16829;DHT22;8531;48.078;11.968;2022-12-18T13:07:27;-4.50;99.90
16829;DHT22;8531;48.078;11.968;2022-12-18T13:10:26;-4.60;99.90
16829;DHT22;8531;48.078;11.968;2022-12-18T13:13:00;-4.50;99.90
16829;DHT22;8531;48.078;11.968;2022-12-18T13:20:50;-4.50;99.90
16829;DHT22;8531;48.078;11.968;2022-12-18T13:23:27;-4.50;99.90
16829;DHT22;8531;48.078;11.968;2022-12-18T13:31:06;-4.50;99.90
16829;DHT22;8531;48.078;11.968;2022-12-18T13:38:55;-4.40;99.90
16829;DHT22;8531;48.078;11.968;2022-12-18T13:41:33;-4.40;99.90
16829;DHT22;8531;48.078;11.968;2022-12-18T13:44:17;-4.50;99.90
16829;DHT22;8531;48.078;11.968;2022-12-18T13:46:48;-4.40;99.90
16829;DHT22;8531;48.078;11.968;2022-12-18T13:49:45;-4.40;99.90
16829;DHT22;8531;48.078;11.968;2022-12-18T13:54:47;-4.50;99.90
16829;DHT22;8531;48.078;11.968;2022-12-18T13:57:32;-4.60;99.90
16829;DHT22;8531;48.078;11.968;2022-12-18T14:02:45;-4.40;99.90
16829;DHT22;8531;48.078;11.968;2022-12-18T14:07:49;-4.60;99.90
16829;DHT22;8531;48.078;11.968;2022-12-18T14:10:16;-4.50;99.90
16829;DHT22;8531;48.078;11.968;2022-12-18T14:12:46;-4.60;99.90
16829;DHT22;8531;48.078;11.968;2022-12-18T14:17:55;-4.60;99.90
16829;DHT22;8531;48.078;11.968;2022-12-18T14:20:22;-4.60;99.90
16829;DHT22;8531;48.078;11.968;2022-12-18T14:22:49;-4.60;99.90
16829;DHT22;8531;48.078;11.968;2022-12-18T14:25:17;-4.60;99.90
16829;DHT22;8531;48.078;11.968;2022-12-18T14:27:45;-4.70;99.90
16829;DHT22;8531;48.078;11.968;2022-12-18T14:33:03;-4.90;99.90
16829;DHT22;8531;48.078;11.968;2022-12-18T14:35:30;-4.90;99.90
16829;DHT22;8531;48.078;11.968;2022-12-18T14:38:18;-4.90;99.90
16829;DHT22;8531;48.078;11.968;2022-12-18T14:40:44;-4.80;99.90
16829;DHT22;8531;48.078;11.968;2022-12-18T14:43:11;-4.80;99.90
16829;DHT22;8531;48.078;11.968;2022-12-18T14:45:43;-4.80;99.90
16829;DHT22;8531;48.078;11.968;2022-12-18T14:48:18;-4.70;99.90
16829;DHT22;8531;48.078;11.968;2022-12-18T14:50:45;-4.80;99.90
16829;DHT22;8531;48.078;11.968;2022-12-18T14:53:23;-4.70;99.90
16829;DHT22;8531;48.078;11.968;2022-12-18T14:55:49;-4.80;99.90
16829;DHT22;8531;48.078;11.968;2022-12-18T14:58:16;-4.80;99.90
16829;DHT22;8531;48.078;11.968;2022-12-18T15:00:43;-4.80;99.90
16829;DHT22;8531;48.078;11.968;2022-12-18T15:03:09;-4.70;99.90
16829;DHT22;8531;48.078;11.968;2022-12-18T15:05:35;-4.70;99.90
16829;DHT22;8531;48.078;11.968;2022-12-18T15:08:02;-4.70;99.90
16829;DHT22;8531;48.078;11.968;2022-12-18T15:10:30;-4.60;99.90
16829;DHT22;8531;48.078;11.968;2022-12-18T15:20:50;-4.60;99.90
16829;DHT22;8531;48.078;11.968;2022-12-18T15:26:08;-4.50;99.90
16829;DHT22;8531;48.078;11.968;2022-12-18T15:28:52;-4.70;99.90
16829;DHT22;8531;48.078;11.968;2022-12-18T15:31:29;-4.70;99.90
16829;DHT22;8531;48.078;11.968;2022-12-18T15:36:22;-4.80;99.90
16829;DHT22;8531;48.078;11.968;2022-12-18T15:38:49;-4.80;99.90
16829;DHT22;8531;48.078;11.968;2022-12-18T15:41:18;-4.80;99.90
16829;DHT22;8531;48.078;11.968;2022-12-18T15:43:45;-4.80;99.90
16829;DHT22;8531;48.078;11.968;2022-12-18T15:46:13;-4.70;99.90
16829;DHT22;8531;48.078;11.968;2022-12-18T15:51:19;-4.80;99.90
16829;DHT22;8531;48.078;11.968;2022-12-18T15:53:50;-4.70;99.90
16829;DHT22;8531;48.078;11.968;2022-12-18T15:56:18;-4.70;99.90
16829;DHT22;8531;48.078;11.968;2022-12-18T15:59:08;-4.70;99.90
16829;DHT22;8531;48.078;11.968;2022-12-18T16:01:35;-4.70;99.90
16829;DHT22;8531;48.078;11.968;2022-12-18T16:04:00;-4.70;99.90
16829;DHT22;8531;48.078;11.968;2022-12-18T16:06:26;-4.70;99.90
16829;DHT22;8531;48.078;11.968;2022-12-18T16:08:52;-4.70;99.90
16829;DHT22;8531;48.078;11.968;2022-12-18T16:11:22;-4.70;99.90
16829;DHT22;8531;48.078;11.968;2022-12-18T16:14:25;-4.60;99.90
16829;DHT22;8531;48.078;11.968;2022-12-18T16:16:53;-4.60;99.90
16829;DHT22;8531;48.078;11.968;2022-12-18T16:19:20;-4.50;99.90
16829;DHT22;8531;48.078;11.968;2022-12-18T16:21:47;-4.60;99.90
16829;DHT22;8531;48.078;11.968;2022-12-18T16:24:18;-4.60;99.90
16829;DHT22;8531;48.078;11.968;2022-12-18T16:26:45;-4.60;99.90
16829;DHT22;8531;48.078;11.968;2022-12-18T16:29:11;-4.50;99.90
16829;DHT22;8531;48.078;11.968;2022-12-18T16:31:37;-4.50;99.90
16829;DHT22;8531;48.078;11.968;2022-12-18T16:34:14;-4.50;99.90
16829;DHT22;8531;48.078;11.968;2022-12-18T16:36:43;-4.50;99.90
16829;DHT22;8531;48.078;11.968;2022-12-18T16:39:08;-4.50;99.90
16829;DHT22;8531;48.078;11.968;2022-12-18T16:41:34;-4.50;99.90
16829;DHT22;8531;48.078;11.968;2022-12-18T16:44:00;-4.50;99.90
16829;DHT22;8531;48.078;11.968;2022-12-18T16:46:26;-4.60;99.90
16829;DHT22;8531;48.078;11.968;2022-12-18T16:48:52;-4.50;99.90
16829;DHT22;8531;48.078;11.968;2022-12-18T16:51:18;-4.50;99.90
16829;DHT22;8531;48.078;11.968;2022-12-18T16:53:43;-4.60;99.90
16829;DHT22;8531;48.078;11.968;2022-12-18T16:56:09;-4.60;99.90
16829;DHT22;8531;48.078;11.968;2022-12-18T16:58:35;-4.60;99.90
16829;DHT22;8531;48.078;11.968;2022-12-18T17:01:00;-4.50;99.90
16829;DHT22;8531;48.078;11.968;2022-12-18T17:03:26;-4.60;99.90
16829;DHT22;8531;48.078;11.968;2022-12-18T17:05:52;-4.70;99.90
16829;DHT22;8531;48.078;11.968;2022-12-18T17:08:18;-4.60;99.90
16829;DHT22;8531;48.078;11.968;2022-12-18T17:10:43;-4.50;99.90
16829;DHT22;8531;48.078;11.968;2022-12-18T17:13:09;-4.60;99.90
16829;DHT22;8531;48.078;11.968;2022-12-18T17:15:35;-4.50;99.90
16829;DHT22;8531;48.078;11.968;2022-12-18T17:18:01;-4.60;99.90
16829;DHT22;8531;48.078;11.968;2022-12-18T17:20:26;-4.50;99.90
16829;DHT22;8531;48.078;11.968;2022-12-18T17:22:52;-4.60;99.90
16829;DHT22;8531;48.078;11.968;2022-12-18T17:25:18;-4.60;99.90
16829;DHT22;8531;48.078;11.968;2022-12-18T17:27:44;-4.60;99.90
16829;DHT22;8531;48.078;11.968;2022-12-18T17:30:10;-4.70;99.90
16829;DHT22;8531;48.078;11.968;2022-12-18T17:32:35;-4.60;99.90
16829;DHT22;8531;48.078;11.968;2022-12-18T17:35:01;-4.50;99.90
16829;DHT22;8531;48.078;11.968;2022-12-18T17:37:27;-4.40;99.90
16829;DHT22;8531;48.078;11.968;2022-12-18T17:39:53;-4.50;99.90
16829;DHT22;8531;48.078;11.968;2022-12-18T17:42:18;-4.70;99.90
16829;DHT22;8531;48.078;11.968;2022-12-18T17:44:44;-4.80;99.90
16829;DHT22;8531;48.078;11.968;2022-12-18T17:47:11;-4.70;99.90
16829;DHT22;8531;48.078;11.968;2022-12-18T17:49:37;-4.90;99.90
16829;DHT22;8531;48.078;11.968;2022-12-18T17:52:03;-4.90;99.90
16829;DHT22;8531;48.078;11.968;2022-12-18T17:54:30;-4.90;99.90
16829;DHT22;8531;48.078;11.968;2022-12-18T17:56:55;-5.00;99.90
16829;DHT22;8531;48.078;11.968;2022-12-18T17:59:21;-5.00;99.90
16829;DHT22;8531;48.078;11.968;2022-12-18T18:01:47;-5.10;99.90
16829;DHT22;8531;48.078;11.968;2022-12-18T18:04:13;-5.00;99.90